Main page
METAR-TAF:

METAR-TAF

Airports :

Helsinki Airport

Helsinki, Finland

latitude: 60-19N, longitude: 024-58E, elevation: 51 m

Current weather observation

The report was made 11 minutes ago, at 23:50 UTC
Wind 11 kt from the North/Northeast
Temperature -13°C
Humidity 85%
Pressure 1015 hPa
Visibility 10 km or more
Few clouds at a height of 3500 ft
light snow

METAR: EFHK 042350Z 03011KT 9999 -SN FEW035 M13/M15 Q1015 NOSIG

Time: 02:01 (00:01 UTC)

Forecast

The report was made 30 minutes ago, at 23:31 UTC
Forecast valid from 05 at 00 UTC to 05 at 24 UTC
Wind 10 kt from the North/Northeast
Visibility 10 km or more
Few clouds at a height of 3500 ft
light snow

TAF: EFHK 042331Z 0500/0524 03010KT 9999 -SN FEW035

Weather observations and forecasts of more than 4000 airports (METAR and TAF reports).

The available stations are represented by yellow and red dots on the map.

Hover mouse over dot to see the name of the station.

Then click to see weather observations and forecasts.

To change the map : click on the green buttons with a black cross to zoom in, on the green button with a dash to zoom out, or on the green arrows for adjacent maps.


METAR-TAF: